Terminal Aerodrome Forecast
Issued by NWS

Home | Current Version | Previous Version | Text Only | Print | Product List | Glossary On
Versions: 1 2 3 4 5 6 7 8 9 10 11 12 13 14 15 16 17 18 19 20 21 22
000
FTUS44 KHGX 281140
TAFUTS
TAF
KUTS 281140Z 2812/2912 20008KT P6SM BKN023
     FM281500 20009KT P6SM SCT025 BKN030
     FM281700 19008KT P6SM SCT035
     FM282200 18007KT P6SM VCTS SCT035CB
      TEMPO 2822/2902 VRB10G25KT 4SM TSRA BKN027CB OVC050
     FM290200 VRB05KT P6SM VCSH BKN025 BKN050
      TEMPO 2902/2906 SHRA BKN020 OVC030
     FM290600 VRB04KT P6SM VCSH BKN018 OVC090=

USA.gov is the U.S. government's official web portal to all federal, state and local government web resources and services.